sensor_id;sensor_type;location;lat;lon;timestamp;P1;durP1;ratioP1;P2;durP2;ratioP2
4214;SDS011;2121;48.062;7.850;2023-05-07T00:00:16;6.73;;;4.20;;
4214;SDS011;2121;48.062;7.850;2023-05-07T00:02:44;4.73;;;3.67;;
4214;SDS011;2121;48.062;7.850;2023-05-07T00:05:10;6.83;;;3.90;;
4214;SDS011;2121;48.062;7.850;2023-05-07T00:07:36;7.23;;;4.67;;
4214;SDS011;2121;48.062;7.850;2023-05-07T00:10:02;7.37;;;4.10;;
4214;SDS011;2121;48.062;7.850;2023-05-07T00:12:31;8.93;;;4.10;;
4214;SDS011;2121;48.062;7.850;2023-05-07T00:14:59;5.90;;;3.43;;
4214;SDS011;2121;48.062;7.850;2023-05-07T00:17:27;4.47;;;4.07;;
4214;SDS011;2121;48.062;7.850;2023-05-07T00:19:52;5.00;;;4.50;;
4214;SDS011;2121;48.062;7.850;2023-05-07T00:22:18;7.20;;;4.30;;
4214;SDS011;2121;48.062;7.850;2023-05-07T00:24:44;5.23;;;3.57;;
4214;SDS011;2121;48.062;7.850;2023-05-07T00:27:09;7.37;;;3.50;;
4214;SDS011;2121;48.062;7.850;2023-05-07T00:29:35;4.00;;;3.30;;
4214;SDS011;2121;48.062;7.850;2023-05-07T00:32:01;9.00;;;4.27;;
4214;SDS011;2121;48.062;7.850;2023-05-07T00:34:27;4.90;;;3.73;;
4214;SDS011;2121;48.062;7.850;2023-05-07T00:36:53;6.47;;;4.17;;
4214;SDS011;2121;48.062;7.850;2023-05-07T00:39:18;5.50;;;3.33;;
4214;SDS011;2121;48.062;7.850;2023-05-07T00:41:44;8.63;;;3.30;;
4214;SDS011;2121;48.062;7.850;2023-05-07T00:44:10;3.23;;;3.00;;
4214;SDS011;2121;48.062;7.850;2023-05-07T00:46:36;4.10;;;3.80;;
4214;SDS011;2121;48.062;7.850;2023-05-07T00:49:02;6.20;;;3.63;;
4214;SDS011;2121;48.062;7.850;2023-05-07T00:51:29;5.60;;;2.90;;
4214;SDS011;2121;48.062;7.850;2023-05-07T00:53:55;4.50;;;4.10;;
4214;SDS011;2121;48.062;7.850;2023-05-07T00:56:21;8.53;;;3.70;;
4214;SDS011;2121;48.062;7.850;2023-05-07T00:58:48;4.17;;;3.63;;
4214;SDS011;2121;48.062;7.850;2023-05-07T01:01:14;16.77;;;4.70;;
4214;SDS011;2121;48.062;7.850;2023-05-07T01:03:42;4.80;;;3.67;;
4214;SDS011;2121;48.062;7.850;2023-05-07T01:06:09;4.07;;;3.63;;
4214;SDS011;2121;48.062;7.850;2023-05-07T01:08:37;3.90;;;3.60;;
4214;SDS011;2121;48.062;7.850;2023-05-07T01:11:07;12.43;;;5.37;;
4214;SDS011;2121;48.062;7.850;2023-05-07T01:13:34;4.53;;;3.33;;
4214;SDS011;2121;48.062;7.850;2023-05-07T01:16:01;12.93;;;3.97;;
4214;SDS011;2121;48.062;7.850;2023-05-07T01:18:28;3.83;;;3.50;;
4214;SDS011;2121;48.062;7.850;2023-05-07T01:20:55;4.17;;;3.87;;
4214;SDS011;2121;48.062;7.850;2023-05-07T01:23:24;4.77;;;3.43;;
4214;SDS011;2121;48.062;7.850;2023-05-07T01:25:52;3.67;;;3.47;;
4214;SDS011;2121;48.062;7.850;2023-05-07T01:28:19;8.83;;;4.07;;
4214;SDS011;2121;48.062;7.850;2023-05-07T01:30:46;3.30;;;3.10;;
4214;SDS011;2121;48.062;7.850;2023-05-07T01:33:15;3.93;;;3.20;;
4214;SDS011;2121;48.062;7.850;2023-05-07T01:35:51;4.00;;;3.53;;
4214;SDS011;2121;48.062;7.850;2023-05-07T01:38:18;6.67;;;4.40;;
4214;SDS011;2121;48.062;7.850;2023-05-07T01:40:46;3.80;;;3.43;;
4214;SDS011;2121;48.062;7.850;2023-05-07T01:43:12;4.33;;;3.67;;
4214;SDS011;2121;48.062;7.850;2023-05-07T01:45:38;4.80;;;3.77;;
4214;SDS011;2121;48.062;7.850;2023-05-07T01:48:05;6.00;;;3.73;;
4214;SDS011;2121;48.062;7.850;2023-05-07T01:50:34;5.83;;;4.00;;
4214;SDS011;2121;48.062;7.850;2023-05-07T01:53:01;6.07;;;4.20;;
4214;SDS011;2121;48.062;7.850;2023-05-07T01:55:27;7.87;;;4.57;;
4214;SDS011;2121;48.062;7.850;2023-05-07T01:57:56;4.67;;;4.20;;
4214;SDS011;2121;48.062;7.850;2023-05-07T02:00:21;6.40;;;4.53;;
4214;SDS011;2121;48.062;7.850;2023-05-07T02:02:47;5.20;;;4.70;;
4214;SDS011;2121;48.062;7.850;2023-05-07T02:05:13;13.00;;;4.77;;
4214;SDS011;2121;48.062;7.850;2023-05-07T02:07:39;7.30;;;4.03;;
4214;SDS011;2121;48.062;7.850;2023-05-07T02:10:05;5.73;;;4.17;;
4214;SDS011;2121;48.062;7.850;2023-05-07T02:12:31;4.80;;;4.10;;
4214;SDS011;2121;48.062;7.850;2023-05-07T02:14:57;5.80;;;4.20;;
4214;SDS011;2121;48.062;7.850;2023-05-07T02:17:22;4.40;;;3.70;;
4214;SDS011;2121;48.062;7.850;2023-05-07T02:19:48;4.53;;;4.13;;
4214;SDS011;2121;48.062;7.850;2023-05-07T02:22:14;7.50;;;4.63;;
4214;SDS011;2121;48.062;7.850;2023-05-07T02:24:40;9.47;;;4.57;;
4214;SDS011;2121;48.062;7.850;2023-05-07T02:27:06;8.30;;;3.93;;
4214;SDS011;2121;48.062;7.850;2023-05-07T02:29:32;8.80;;;4.67;;
4214;SDS011;2121;48.062;7.850;2023-05-07T02:31:57;5.27;;;3.50;;
4214;SDS011;2121;48.062;7.850;2023-05-07T02:34:23;9.23;;;3.87;;
4214;SDS011;2121;48.062;7.850;2023-05-07T02:36:49;3.23;;;3.03;;
4214;SDS011;2121;48.062;7.850;2023-05-07T02:39:14;4.43;;;4.03;;
4214;SDS011;2121;48.062;7.850;2023-05-07T02:41:41;4.00;;;3.20;;
4214;SDS011;2121;48.062;7.850;2023-05-07T02:44:07;5.63;;;3.73;;
4214;SDS011;2121;48.062;7.850;2023-05-07T02:46:34;5.63;;;4.77;;
4214;SDS011;2121;48.062;7.850;2023-05-07T02:48:59;6.00;;;4.47;;
4214;SDS011;2121;48.062;7.850;2023-05-07T02:51:25;4.60;;;4.10;;
4214;SDS011;2121;48.062;7.850;2023-05-07T02:53:53;9.07;;;4.80;;
4214;SDS011;2121;48.062;7.850;2023-05-07T02:56:18;4.90;;;4.50;;
4214;SDS011;2121;48.062;7.850;2023-05-07T02:58:44;6.60;;;4.90;;
4214;SDS011;2121;48.062;7.850;2023-05-07T03:01:10;5.73;;;4.30;;
4214;SDS011;2121;48.062;7.850;2023-05-07T03:03:37;5.50;;;5.03;;
4214;SDS011;2121;48.062;7.850;2023-05-07T03:06:02;6.53;;;4.97;;
4214;SDS011;2121;48.062;7.850;2023-05-07T03:08:28;5.43;;;3.97;;
4214;SDS011;2121;48.062;7.850;2023-05-07T03:10:54;4.83;;;4.43;;
4214;SDS011;2121;48.062;7.850;2023-05-07T03:13:20;7.57;;;5.83;;
4214;SDS011;2121;48.062;7.850;2023-05-07T03:15:46;5.57;;;5.03;;
4214;SDS011;2121;48.062;7.850;2023-05-07T03:18:11;4.70;;;4.27;;
4214;SDS011;2121;48.062;7.850;2023-05-07T03:20:37;6.03;;;4.40;;
4214;SDS011;2121;48.062;7.850;2023-05-07T03:23:03;5.30;;;4.40;;
4214;SDS011;2121;48.062;7.850;2023-05-07T03:25:29;12.10;;;4.53;;
4214;SDS011;2121;48.062;7.850;2023-05-07T03:27:57;4.53;;;3.73;;
4214;SDS011;2121;48.062;7.850;2023-05-07T03:30:23;6.00;;;5.10;;
4214;SDS011;2121;48.062;7.850;2023-05-07T03:32:49;5.23;;;4.57;;
4214;SDS011;2121;48.062;7.850;2023-05-07T03:35:15;6.27;;;5.17;;
4214;SDS011;2121;48.062;7.850;2023-05-07T03:37:41;7.67;;;4.67;;
4214;SDS011;2121;48.062;7.850;2023-05-07T03:40:07;10.30;;;5.37;;
4214;SDS011;2121;48.062;7.850;2023-05-07T03:42:35;5.33;;;4.87;;
4214;SDS011;2121;48.062;7.850;2023-05-07T03:45:01;8.07;;;4.77;;
4214;SDS011;2121;48.062;7.850;2023-05-07T03:47:27;4.87;;;4.37;;
4214;SDS011;2121;48.062;7.850;2023-05-07T03:49:52;4.50;;;4.00;;
4214;SDS011;2121;48.062;7.850;2023-05-07T03:52:19;17.33;;;5.43;;
4214;SDS011;2121;48.062;7.850;2023-05-07T03:54:49;8.63;;;3.97;;
4214;SDS011;2121;48.062;7.850;2023-05-07T03:57:15;4.10;;;3.73;;
4214;SDS011;2121;48.062;7.850;2023-05-07T03:59:41;4.43;;;4.03;;
4214;SDS011;2121;48.062;7.850;2023-05-07T04:02:06;7.53;;;5.37;;
4214;SDS011;2121;48.062;7.850;2023-05-07T04:04:32;4.60;;;4.20;;
4214;SDS011;2121;48.062;7.850;2023-05-07T04:06:58;5.60;;;4.60;;
4214;SDS011;2121;48.062;7.850;2023-05-07T04:09:25;5.00;;;4.50;;
4214;SDS011;2121;48.062;7.850;2023-05-07T04:11:51;5.90;;;5.00;;
4214;SDS011;2121;48.062;7.850;2023-05-07T04:14:16;5.23;;;4.73;;
4214;SDS011;2121;48.062;7.850;2023-05-07T04:16:42;5.30;;;4.37;;
4214;SDS011;2121;48.062;7.850;2023-05-07T04:19:08;4.90;;;3.90;;
4214;SDS011;2121;48.062;7.850;2023-05-07T04:21:33;5.00;;;4.40;;
4214;SDS011;2121;48.062;7.850;2023-05-07T04:23:59;5.20;;;4.70;;
4214;SDS011;2121;48.062;7.850;2023-05-07T04:26:25;5.17;;;4.70;;
4214;SDS011;2121;48.062;7.850;2023-05-07T04:28:51;5.57;;;4.20;;
4214;SDS011;2121;48.062;7.850;2023-05-07T04:31:16;4.67;;;4.20;;
4214;SDS011;2121;48.062;7.850;2023-05-07T04:33:42;5.70;;;4.50;;
4214;SDS011;2121;48.062;7.850;2023-05-07T04:36:08;10.13;;;4.27;;
4214;SDS011;2121;48.062;7.850;2023-05-07T04:38:34;6.83;;;5.43;;
4214;SDS011;2121;48.062;7.850;2023-05-07T04:41:03;6.00;;;4.83;;
4214;SDS011;2121;48.062;7.850;2023-05-07T04:43:30;9.30;;;5.40;;
4214;SDS011;2121;48.062;7.850;2023-05-07T04:45:56;5.37;;;4.87;;
4214;SDS011;2121;48.062;7.850;2023-05-07T04:48:22;6.70;;;4.63;;
4214;SDS011;2121;48.062;7.850;2023-05-07T04:50:48;12.50;;;5.20;;
4214;SDS011;2121;48.062;7.850;2023-05-07T04:53:17;6.13;;;4.53;;
4214;SDS011;2121;48.062;7.850;2023-05-07T04:55:43;8.00;;;4.63;;
4214;SDS011;2121;48.062;7.850;2023-05-07T04:58:12;5.80;;;5.20;;
4214;SDS011;2121;48.062;7.850;2023-05-07T05:00:38;8.47;;;5.80;;
4214;SDS011;2121;48.062;7.850;2023-05-07T05:03:06;4.90;;;4.40;;
4214;SDS011;2121;48.062;7.850;2023-05-07T05:05:32;9.17;;;5.03;;
4214;SDS011;2121;48.062;7.850;2023-05-07T05:07:57;4.87;;;4.53;;
4214;SDS011;2121;48.062;7.850;2023-05-07T05:10:23;5.90;;;5.30;;
4214;SDS011;2121;48.062;7.850;2023-05-07T05:12:50;5.03;;;3.90;;
4214;SDS011;2121;48.062;7.850;2023-05-07T05:15:15;6.90;;;4.67;;
4214;SDS011;2121;48.062;7.850;2023-05-07T05:17:41;9.90;;;5.20;;
4214;SDS011;2121;48.062;7.850;2023-05-07T05:20:07;4.67;;;4.27;;
4214;SDS011;2121;48.062;7.850;2023-05-07T05:22:35;14.73;;;5.07;;
4214;SDS011;2121;48.062;7.850;2023-05-07T05:25:01;5.90;;;4.40;;
4214;SDS011;2121;48.062;7.850;2023-05-07T05:27:27;6.40;;;3.37;;
4214;SDS011;2121;48.062;7.850;2023-05-07T05:29:53;5.10;;;3.60;;
4214;SDS011;2121;48.062;7.850;2023-05-07T05:32:19;9.30;;;3.97;;
4214;SDS011;2121;48.062;7.850;2023-05-07T05:34:45;3.80;;;3.50;;
4214;SDS011;2121;48.062;7.850;2023-05-07T05:37:10;3.77;;;3.47;;
4214;SDS011;2121;48.062;7.850;2023-05-07T05:39:36;4.00;;;3.70;;
4214;SDS011;2121;48.062;7.850;2023-05-07T05:42:02;6.10;;;4.77;;
4214;SDS011;2121;48.062;7.850;2023-05-07T05:44:28;4.50;;;3.73;;
4214;SDS011;2121;48.062;7.850;2023-05-07T05:46:54;5.10;;;3.97;;
4214;SDS011;2121;48.062;7.850;2023-05-07T05:49:20;5.93;;;4.80;;
4214;SDS011;2121;48.062;7.850;2023-05-07T05:51:47;5.67;;;4.50;;
4214;SDS011;2121;48.062;7.850;2023-05-07T05:54:12;5.30;;;4.67;;
4214;SDS011;2121;48.062;7.850;2023-05-07T05:56:38;6.00;;;5.00;;
4214;SDS011;2121;48.062;7.850;2023-05-07T05:59:04;4.70;;;4.30;;
4214;SDS011;2121;48.062;7.850;2023-05-07T06:01:29;5.80;;;4.03;;
4214;SDS011;2121;48.062;7.850;2023-05-07T06:03:55;5.77;;;4.07;;
4214;SDS011;2121;48.062;7.850;2023-05-07T06:06:21;6.53;;;4.83;;
4214;SDS011;2121;48.062;7.850;2023-05-07T06:08:47;4.53;;;4.13;;
4214;SDS011;2121;48.062;7.850;2023-05-07T06:11:13;5.00;;;4.47;;
4214;SDS011;2121;48.062;7.850;2023-05-07T06:13:38;5.13;;;4.13;;
4214;SDS011;2121;48.062;7.850;2023-05-07T06:16:04;6.27;;;4.17;;
4214;SDS011;2121;48.062;7.850;2023-05-07T06:18:31;4.20;;;3.80;;
4214;SDS011;2121;48.062;7.850;2023-05-07T06:20:56;5.10;;;4.30;;
4214;SDS011;2121;48.062;7.850;2023-05-07T06:23:22;4.50;;;4.07;;
4214;SDS011;2121;48.062;7.850;2023-05-07T06:25:48;4.40;;;4.00;;
4214;SDS011;2121;48.062;7.850;2023-05-07T06:28:15;7.83;;;3.93;;
4214;SDS011;2121;48.062;7.850;2023-05-07T06:30:41;5.13;;;4.30;;
4214;SDS011;2121;48.062;7.850;2023-05-07T06:33:07;4.07;;;3.77;;
4214;SDS011;2121;48.062;7.850;2023-05-07T06:35:33;3.97;;;3.60;;
4214;SDS011;2121;48.062;7.850;2023-05-07T06:37:59;6.43;;;4.37;;
4214;SDS011;2121;48.062;7.850;2023-05-07T06:40:25;5.03;;;4.20;;
4214;SDS011;2121;48.062;7.850;2023-05-07T06:42:51;5.27;;;4.00;;
4214;SDS011;2121;48.062;7.850;2023-05-07T06:45:17;4.67;;;4.23;;
4214;SDS011;2121;48.062;7.850;2023-05-07T06:47:44;5.40;;;4.50;;
4214;SDS011;2121;48.062;7.850;2023-05-07T06:50:10;4.03;;;3.53;;
4214;SDS011;2121;48.062;7.850;2023-05-07T06:52:36;4.33;;;3.93;;
4214;SDS011;2121;48.062;7.850;2023-05-07T06:55:01;6.33;;;4.40;;
4214;SDS011;2121;48.062;7.850;2023-05-07T06:57:27;5.70;;;4.27;;
4214;SDS011;2121;48.062;7.850;2023-05-07T06:59:53;12.13;;;4.53;;
4214;SDS011;2121;48.062;7.850;2023-05-07T07:02:19;4.93;;;4.53;;
4214;SDS011;2121;48.062;7.850;2023-05-07T07:04:44;5.07;;;4.50;;
4214;SDS011;2121;48.062;7.850;2023-05-07T07:07:10;5.20;;;4.53;;
4214;SDS011;2121;48.062;7.850;2023-05-07T07:09:36;5.67;;;4.73;;
4214;SDS011;2121;48.062;7.850;2023-05-07T07:12:02;4.27;;;4.00;;
4214;SDS011;2121;48.062;7.850;2023-05-07T07:14:28;10.73;;;4.80;;
4214;SDS011;2121;48.062;7.850;2023-05-07T07:16:53;7.80;;;4.33;;
4214;SDS011;2121;48.062;7.850;2023-05-07T07:19:19;4.90;;;4.47;;
4214;SDS011;2121;48.062;7.850;2023-05-07T07:21:45;5.60;;;4.03;;
4214;SDS011;2121;48.062;7.850;2023-05-07T07:24:11;6.30;;;4.90;;
4214;SDS011;2121;48.062;7.850;2023-05-07T07:26:38;8.77;;;4.27;;
4214;SDS011;2121;48.062;7.850;2023-05-07T07:29:04;6.30;;;4.03;;
4214;SDS011;2121;48.062;7.850;2023-05-07T07:31:31;5.80;;;4.97;;
4214;SDS011;2121;48.062;7.850;2023-05-07T07:33:57;12.70;;;4.83;;
4214;SDS011;2121;48.062;7.850;2023-05-07T07:36:23;6.20;;;5.30;;
4214;SDS011;2121;48.062;7.850;2023-05-07T07:38:48;6.47;;;5.53;;
4214;SDS011;2121;48.062;7.850;2023-05-07T07:41:14;7.87;;;5.63;;
4214;SDS011;2121;48.062;7.850;2023-05-07T07:43:40;5.30;;;4.80;;
4214;SDS011;2121;48.062;7.850;2023-05-07T07:46:06;5.30;;;4.90;;
4214;SDS011;2121;48.062;7.850;2023-05-07T07:48:31;5.83;;;5.20;;
4214;SDS011;2121;48.062;7.850;2023-05-07T07:50:57;5.33;;;4.93;;
4214;SDS011;2121;48.062;7.850;2023-05-07T07:53:23;4.90;;;4.50;;
4214;SDS011;2121;48.062;7.850;2023-05-07T07:55:48;6.50;;;4.97;;
4214;SDS011;2121;48.062;7.850;2023-05-07T07:58:14;5.90;;;4.53;;
4214;SDS011;2121;48.062;7.850;2023-05-07T08:00:40;5.53;;;4.53;;
4214;SDS011;2121;48.062;7.850;2023-05-07T08:03:08;6.93;;;4.60;;
4214;SDS011;2121;48.062;7.850;2023-05-07T08:05:35;4.50;;;4.10;;
4214;SDS011;2121;48.062;7.850;2023-05-07T08:08:01;5.10;;;4.70;;
4214;SDS011;2121;48.062;7.850;2023-05-07T08:10:27;4.70;;;3.77;;
4214;SDS011;2121;48.062;7.850;2023-05-07T08:12:53;8.07;;;4.47;;
4214;SDS011;2121;48.062;7.850;2023-05-07T08:15:18;7.20;;;4.20;;
4214;SDS011;2121;48.062;7.850;2023-05-07T08:17:44;4.97;;;3.80;;
4214;SDS011;2121;48.062;7.850;2023-05-07T08:20:10;3.90;;;3.50;;
4214;SDS011;2121;48.062;7.850;2023-05-07T08:22:36;4.53;;;4.07;;
4214;SDS011;2121;48.062;7.850;2023-05-07T08:25:02;5.20;;;3.53;;
4214;SDS011;2121;48.062;7.850;2023-05-07T08:27:28;4.17;;;3.77;;
4214;SDS011;2121;48.062;7.850;2023-05-07T08:29:54;3.83;;;3.43;;
4214;SDS011;2121;48.062;7.850;2023-05-07T08:32:20;5.47;;;4.30;;
4214;SDS011;2121;48.062;7.850;2023-05-07T08:34:46;4.00;;;3.67;;
4214;SDS011;2121;48.062;7.850;2023-05-07T08:37:12;3.83;;;3.40;;
4214;SDS011;2121;48.062;7.850;2023-05-07T08:39:38;4.33;;;3.63;;
4214;SDS011;2121;48.062;7.850;2023-05-07T08:42:04;4.63;;;3.43;;
4214;SDS011;2121;48.062;7.850;2023-05-07T08:44:34;4.00;;;3.70;;
4214;SDS011;2121;48.062;7.850;2023-05-07T08:47:02;4.67;;;3.60;;
4214;SDS011;2121;48.062;7.850;2023-05-07T08:49:33;7.60;;;4.07;;
4214;SDS011;2121;48.062;7.850;2023-05-07T08:52:00;4.77;;;3.97;;
4214;SDS011;2121;48.062;7.850;2023-05-07T08:54:26;5.67;;;4.10;;
4214;SDS011;2121;48.062;7.850;2023-05-07T08:56:54;3.77;;;3.43;;
4214;SDS011;2121;48.062;7.850;2023-05-07T08:59:20;5.80;;;4.10;;
4214;SDS011;2121;48.062;7.850;2023-05-07T09:01:45;5.80;;;4.70;;
4214;SDS011;2121;48.062;7.850;2023-05-07T09:04:11;8.60;;;4.83;;
4214;SDS011;2121;48.062;7.850;2023-05-07T09:06:37;6.40;;;5.10;;
4214;SDS011;2121;48.062;7.850;2023-05-07T09:09:06;4.93;;;4.27;;
4214;SDS011;2121;48.062;7.850;2023-05-07T09:11:32;4.83;;;4.43;;
4214;SDS011;2121;48.062;7.850;2023-05-07T09:13:58;4.70;;;4.27;;
4214;SDS011;2121;48.062;7.850;2023-05-07T09:16:28;5.23;;;4.73;;
4214;SDS011;2121;48.062;7.850;2023-05-07T09:18:57;4.87;;;4.47;;
4214;SDS011;2121;48.062;7.850;2023-05-07T09:21:25;6.07;;;4.50;;
4214;SDS011;2121;48.062;7.850;2023-05-07T09:23:51;6.07;;;3.80;;
4214;SDS011;2121;48.062;7.850;2023-05-07T09:26:22;6.20;;;4.30;;
4214;SDS011;2121;48.062;7.850;2023-05-07T09:28:49;5.23;;;4.73;;
4214;SDS011;2121;48.062;7.850;2023-05-07T09:31:15;4.40;;;4.10;;
4214;SDS011;2121;48.062;7.850;2023-05-07T09:33:41;6.60;;;4.13;;
4214;SDS011;2121;48.062;7.850;2023-05-07T09:36:07;5.90;;;4.07;;
4214;SDS011;2121;48.062;7.850;2023-05-07T09:38:35;5.07;;;4.60;;
4214;SDS011;2121;48.062;7.850;2023-05-07T09:41:02;5.50;;;5.00;;
4214;SDS011;2121;48.062;7.850;2023-05-07T09:43:36;4.90;;;4.37;;
4214;SDS011;2121;48.062;7.850;2023-05-07T09:46:05;4.43;;;3.90;;
4214;SDS011;2121;48.062;7.850;2023-05-07T09:48:37;6.40;;;4.40;;
4214;SDS011;2121;48.062;7.850;2023-05-07T09:51:15;5.00;;;4.00;;
4214;SDS011;2121;48.062;7.850;2023-05-07T09:53:53;4.73;;;4.33;;
4214;SDS011;2121;48.062;7.850;2023-05-07T09:56:21;4.40;;;4.00;;
4214;SDS011;2121;48.062;7.850;2023-05-07T09:58:47;6.70;;;4.73;;
4214;SDS011;2121;48.062;7.850;2023-05-07T10:01:15;6.93;;;5.00;;
4214;SDS011;2121;48.062;7.850;2023-05-07T10:03:44;4.37;;;3.97;;
4214;SDS011;2121;48.062;7.850;2023-05-07T10:06:10;5.47;;;4.67;;
4214;SDS011;2121;48.062;7.850;2023-05-07T10:08:38;5.13;;;4.47;;
4214;SDS011;2121;48.062;7.850;2023-05-07T10:11:05;8.27;;;4.40;;
4214;SDS011;2121;48.062;7.850;2023-05-07T10:13:32;5.30;;;4.70;;
4214;SDS011;2121;48.062;7.850;2023-05-07T10:16:05;4.90;;;4.40;;
4214;SDS011;2121;48.062;7.850;2023-05-07T10:18:31;4.90;;;4.50;;
4214;SDS011;2121;48.062;7.850;2023-05-07T10:21:06;5.80;;;4.23;;
4214;SDS011;2121;48.062;7.850;2023-05-07T10:23:36;4.00;;;3.60;;
4214;SDS011;2121;48.062;7.850;2023-05-07T10:26:05;3.30;;;3.07;;
4214;SDS011;2121;48.062;7.850;2023-05-07T10:28:34;3.97;;;2.80;;
4214;SDS011;2121;48.062;7.850;2023-05-07T10:33:57;3.60;;;3.30;;
4214;SDS011;2121;48.062;7.850;2023-05-07T10:36:24;2.90;;;2.70;;
4214;SDS011;2121;48.062;7.850;2023-05-07T10:38:51;5.30;;;4.13;;
4214;SDS011;2121;48.062;7.850;2023-05-07T10:41:17;5.40;;;3.20;;
4214;SDS011;2121;48.062;7.850;2023-05-07T10:43:44;5.60;;;3.13;;
4214;SDS011;2121;48.062;7.850;2023-05-07T10:51:33;5.67;;;3.80;;
4214;SDS011;2121;48.062;7.850;2023-05-07T10:56:38;4.50;;;4.10;;
4214;SDS011;2121;48.062;7.850;2023-05-07T11:01:49;4.73;;;4.40;;
4214;SDS011;2121;48.062;7.850;2023-05-07T11:04:17;6.43;;;4.90;;
4214;SDS011;2121;48.062;7.850;2023-05-07T11:07:49;6.20;;;4.20;;
4214;SDS011;2121;48.062;7.850;2023-05-07T11:15:08;5.20;;;4.80;;
4214;SDS011;2121;48.062;7.850;2023-05-07T11:17:57;5.73;;;5.17;;
4214;SDS011;2121;48.062;7.850;2023-05-07T11:26:05;4.87;;;4.17;;
4214;SDS011;2121;48.062;7.850;2023-05-07T11:28:39;5.47;;;4.97;;
4214;SDS011;2121;48.062;7.850;2023-05-07T11:31:07;4.97;;;4.50;;
4214;SDS011;2121;48.062;7.850;2023-05-07T11:33:34;4.50;;;3.77;;
4214;SDS011;2121;48.062;7.850;2023-05-07T11:36:04;5.03;;;4.53;;
4214;SDS011;2121;48.062;7.850;2023-05-07T11:38:34;5.30;;;4.80;;
4214;SDS011;2121;48.062;7.850;2023-05-07T11:41:01;4.97;;;4.57;;
4214;SDS011;2121;48.062;7.850;2023-05-07T11:43:29;5.70;;;4.30;;
4214;SDS011;2121;48.062;7.850;2023-05-07T11:46:04;3.70;;;3.50;;
4214;SDS011;2121;48.062;7.850;2023-05-07T11:48:36;3.70;;;3.40;;
4214;SDS011;2121;48.062;7.850;2023-05-07T11:51:05;4.10;;;3.80;;
4214;SDS011;2121;48.062;7.850;2023-05-07T11:53:37;5.40;;;3.77;;
4214;SDS011;2121;48.062;7.850;2023-05-07T11:56:15;3.77;;;3.57;;
4214;SDS011;2121;48.062;7.850;2023-05-07T11:58:42;3.10;;;2.80;;
4214;SDS011;2121;48.062;7.850;2023-05-07T12:01:10;4.40;;;3.03;;
4214;SDS011;2121;48.062;7.850;2023-05-07T12:03:37;5.33;;;3.00;;
4214;SDS011;2121;48.062;7.850;2023-05-07T12:06:13;3.37;;;3.13;;
4214;SDS011;2121;48.062;7.850;2023-05-07T12:08:43;3.60;;;3.20;;
4214;SDS011;2121;48.062;7.850;2023-05-07T12:11:15;4.13;;;3.30;;
4214;SDS011;2121;48.062;7.850;2023-05-07T12:13:47;3.03;;;2.73;;
4214;SDS011;2121;48.062;7.850;2023-05-07T12:16:13;3.87;;;3.57;;
4214;SDS011;2121;48.062;7.850;2023-05-07T12:18:39;3.60;;;3.30;;
4214;SDS011;2121;48.062;7.850;2023-05-07T12:21:06;3.80;;;3.50;;
4214;SDS011;2121;48.062;7.850;2023-05-07T12:23:33;3.93;;;3.63;;
4214;SDS011;2121;48.062;7.850;2023-05-07T12:26:01;4.93;;;4.50;;
4214;SDS011;2121;48.062;7.850;2023-05-07T12:28:27;4.70;;;4.30;;
4214;SDS011;2121;48.062;7.850;2023-05-07T12:30:53;5.20;;;4.40;;
4214;SDS011;2121;48.062;7.850;2023-05-07T12:33:24;5.47;;;4.10;;
4214;SDS011;2121;48.062;7.850;2023-05-07T12:35:50;3.50;;;3.30;;
4214;SDS011;2121;48.062;7.850;2023-05-07T12:38:20;7.00;;;3.97;;
4214;SDS011;2121;48.062;7.850;2023-05-07T12:40:47;4.50;;;4.00;;
4214;SDS011;2121;48.062;7.850;2023-05-07T12:43:25;3.30;;;3.10;;
4214;SDS011;2121;48.062;7.850;2023-05-07T12:45:56;6.73;;;3.40;;
4214;SDS011;2121;48.062;7.850;2023-05-07T12:48:26;4.67;;;3.83;;
4214;SDS011;2121;48.062;7.850;2023-05-07T12:50:59;3.77;;;3.27;;
4214;SDS011;2121;48.062;7.850;2023-05-07T12:53:27;3.73;;;3.40;;
4214;SDS011;2121;48.062;7.850;2023-05-07T12:55:55;3.70;;;3.37;;
4214;SDS011;2121;48.062;7.850;2023-05-07T12:58:24;4.77;;;3.17;;
4214;SDS011;2121;48.062;7.850;2023-05-07T13:00:56;3.73;;;3.33;;
4214;SDS011;2121;48.062;7.850;2023-05-07T13:03:25;3.40;;;3.10;;
4214;SDS011;2121;48.062;7.850;2023-05-07T13:06:03;3.20;;;2.70;;
4214;SDS011;2121;48.062;7.850;2023-05-07T13:11:02;3.07;;;2.87;;
4214;SDS011;2121;48.062;7.850;2023-05-07T13:13:32;3.10;;;2.80;;
4214;SDS011;2121;48.062;7.850;2023-05-07T13:16:00;3.17;;;2.80;;
4214;SDS011;2121;48.062;7.850;2023-05-07T13:18:28;3.60;;;3.30;;
4214;SDS011;2121;48.062;7.850;2023-05-07T13:20:55;3.87;;;3.57;;
4214;SDS011;2121;48.062;7.850;2023-05-07T13:23:21;3.77;;;3.47;;
4214;SDS011;2121;48.062;7.850;2023-05-07T13:25:48;3.40;;;3.20;;
4214;SDS011;2121;48.062;7.850;2023-05-07T13:28:14;3.93;;;3.57;;
4214;SDS011;2121;48.062;7.850;2023-05-07T13:30:40;3.77;;;3.47;;
4214;SDS011;2121;48.062;7.850;2023-05-07T13:33:06;4.60;;;3.90;;
4214;SDS011;2121;48.062;7.850;2023-05-07T13:35:32;4.63;;;4.30;;
4214;SDS011;2121;48.062;7.850;2023-05-07T13:37:58;4.37;;;3.97;;
4214;SDS011;2121;48.062;7.850;2023-05-07T13:40:24;4.23;;;3.90;;
4214;SDS011;2121;48.062;7.850;2023-05-07T13:42:50;4.50;;;3.30;;
4214;SDS011;2121;48.062;7.850;2023-05-07T13:45:16;4.20;;;3.13;;
4214;SDS011;2121;48.062;7.850;2023-05-07T13:47:46;3.40;;;3.20;;
4214;SDS011;2121;48.062;7.850;2023-05-07T13:50:12;3.80;;;3.27;;
4214;SDS011;2121;48.062;7.850;2023-05-07T13:52:41;6.73;;;3.20;;
4214;SDS011;2121;48.062;7.850;2023-05-07T13:55:10;5.10;;;3.47;;
4214;SDS011;2121;48.062;7.850;2023-05-07T13:57:36;4.10;;;3.70;;
4214;SDS011;2121;48.062;7.850;2023-05-07T14:00:03;5.57;;;3.90;;
4214;SDS011;2121;48.062;7.850;2023-05-07T14:02:30;3.70;;;3.40;;
4214;SDS011;2121;48.062;7.850;2023-05-07T14:04:56;3.03;;;2.83;;
4214;SDS011;2121;48.062;7.850;2023-05-07T14:07:22;3.73;;;2.90;;
4214;SDS011;2121;48.062;7.850;2023-05-07T14:09:48;3.20;;;2.90;;
4214;SDS011;2121;48.062;7.850;2023-05-07T14:12:13;4.53;;;2.70;;
4214;SDS011;2121;48.062;7.850;2023-05-07T14:14:39;3.40;;;3.13;;
4214;SDS011;2121;48.062;7.850;2023-05-07T14:17:05;2.67;;;2.50;;
4214;SDS011;2121;48.062;7.850;2023-05-07T14:19:30;4.10;;;3.70;;
4214;SDS011;2121;48.062;7.850;2023-05-07T14:21:56;3.37;;;3.17;;
4214;SDS011;2121;48.062;7.850;2023-05-07T14:24:23;5.70;;;5.00;;
4214;SDS011;2121;48.062;7.850;2023-05-07T14:26:49;2.87;;;2.57;;
4214;SDS011;2121;48.062;7.850;2023-05-07T14:29:15;5.00;;;3.28;;
4214;SDS011;2121;48.062;7.850;2023-05-07T14:31:43;2.80;;;2.60;;
4214;SDS011;2121;48.062;7.850;2023-05-07T14:34:10;3.20;;;2.93;;
4214;SDS011;2121;48.062;7.850;2023-05-07T14:36:36;4.40;;;3.30;;
4214;SDS011;2121;48.062;7.850;2023-05-07T14:39:02;3.90;;;3.60;;
4214;SDS011;2121;48.062;7.850;2023-05-07T14:41:29;3.33;;;3.13;;
4214;SDS011;2121;48.062;7.850;2023-05-07T14:43:55;5.90;;;3.30;;
4214;SDS011;2121;48.062;7.850;2023-05-07T14:46:21;3.80;;;3.00;;
4214;SDS011;2121;48.062;7.850;2023-05-07T14:48:48;2.93;;;2.63;;
4214;SDS011;2121;48.062;7.850;2023-05-07T14:51:14;2.95;;;2.75;;
4214;SDS011;2121;48.062;7.850;2023-05-07T14:53:40;3.67;;;3.28;;
4214;SDS011;2121;48.062;7.850;2023-05-07T14:56:07;7.68;;;3.17;;
4214;SDS011;2121;48.062;7.850;2023-05-07T14:58:33;2.95;;;2.65;;
4214;SDS011;2121;48.062;7.850;2023-05-07T15:00:59;3.28;;;3.08;;
4214;SDS011;2121;48.062;7.850;2023-05-07T15:03:26;2.90;;;2.80;;
4214;SDS011;2121;48.062;7.850;2023-05-07T15:05:52;3.27;;;3.00;;
4214;SDS011;2121;48.062;7.850;2023-05-07T15:08:18;3.07;;;2.70;;
4214;SDS011;2121;48.062;7.850;2023-05-07T15:10:44;3.00;;;2.77;;
4214;SDS011;2121;48.062;7.850;2023-05-07T15:13:10;3.50;;;3.20;;
4214;SDS011;2121;48.062;7.850;2023-05-07T15:15:40;3.43;;;3.20;;
4214;SDS011;2121;48.062;7.850;2023-05-07T15:18:08;3.10;;;2.90;;
4214;SDS011;2121;48.062;7.850;2023-05-07T15:20:35;3.43;;;3.13;;
4214;SDS011;2121;48.062;7.850;2023-05-07T15:23:02;3.47;;;3.17;;
4214;SDS011;2121;48.062;7.850;2023-05-07T15:25:30;3.90;;;3.10;;
4214;SDS011;2121;48.062;7.850;2023-05-07T15:27:57;3.57;;;3.27;;
4214;SDS011;2121;48.062;7.850;2023-05-07T15:30:23;4.33;;;3.20;;
4214;SDS011;2121;48.062;7.850;2023-05-07T15:32:49;4.30;;;3.07;;
4214;SDS011;2121;48.062;7.850;2023-05-07T15:35:15;3.27;;;2.50;;
4214;SDS011;2121;48.062;7.850;2023-05-07T15:37:42;4.03;;;2.70;;
4214;SDS011;2121;48.062;7.850;2023-05-07T15:40:08;6.90;;;2.53;;